createdAt,value
2018-04-28T00:03:05.550Z,8.80
2018-04-28T00:05:33.780Z,8.80
2018-04-28T00:08:01.352Z,8.80
2018-04-28T00:10:28.739Z,8.80
2018-04-28T00:12:56.980Z,9.00
2018-04-28T00:15:24.441Z,9.00
2018-04-28T00:17:51.902Z,8.90
2018-04-28T00:20:22.333Z,9.00
2018-04-28T00:25:48.582Z,9.00
2018-04-28T00:28:19.655Z,9.00
2018-04-28T00:33:46.198Z,8.90
2018-04-28T00:36:14.557Z,8.90
2018-04-28T00:38:56.905Z,8.90
2018-04-28T00:41:25.164Z,8.80
2018-04-28T00:43:52.633Z,8.80
2018-04-28T00:46:28.316Z,8.80
2018-04-28T00:49:14.645Z,8.90
2018-04-28T00:51:42.108Z,8.80
2018-04-28T00:54:46.328Z,9.10
2018-04-28T01:00:29.000Z,8.90
2018-04-28T01:02:57.230Z,8.90
2018-04-28T01:05:27.917Z,8.90
2018-04-28T01:07:56.145Z,8.90
2018-04-28T01:10:27.014Z,9.00
2018-04-28T01:12:55.301Z,9.00
2018-04-28T01:15:23.532Z,9.00
2018-04-28T01:17:52.916Z,9.00
2018-04-28T01:23:38.232Z,9.00
2018-04-28T01:26:26.397Z,9.10
2018-04-28T01:32:04.770Z,9.00
2018-04-28T01:34:37.120Z,8.90
2018-04-28T01:40:16.040Z,8.90
2018-04-28T01:42:51.812Z,8.90
2018-04-28T01:45:29.940Z,8.90
2018-04-28T01:50:57.464Z,9.00
2018-04-28T01:53:24.924Z,9.00
2018-04-28T01:58:58.225Z,9.00
2018-04-28T02:01:28.665Z,9.20
2018-04-28T02:03:59.513Z,8.90
2018-04-28T02:06:43.768Z,8.80
2018-04-28T02:09:12.077Z,8.90
2018-04-28T02:11:40.327Z,8.90
2018-04-28T02:14:14.568Z,8.90
2018-04-28T02:16:42.038Z,8.90
2018-04-28T02:22:23.468Z,8.90
2018-04-28T02:25:01.895Z,8.90
2018-04-28T02:30:25.869Z,8.80
2018-04-28T02:32:57.063Z,8.70
2018-04-28T02:35:26.068Z,8.50
2018-04-28T02:37:57.932Z,8.70
2018-04-28T02:43:29.800Z,8.70
2018-04-28T02:46:06.511Z,8.60
2018-04-28T02:48:57.426Z,8.60
2018-04-28T02:54:29.130Z,8.50
2018-04-28T02:56:58.245Z,8.50
2018-04-28T02:59:33.413Z,8.40
2018-04-28T03:02:08.313Z,8.20
2018-04-28T03:04:52.400Z,8.50
2018-04-28T03:07:31.770Z,8.20
2018-04-28T03:10:00.899Z,8.00
2018-04-28T03:12:28.379Z,8.20
2018-04-28T03:15:07.700Z,7.90
2018-04-28T03:20:45.242Z,7.60
2018-04-28T03:23:29.313Z,7.50
2018-04-28T03:25:57.541Z,7.20
2018-04-28T03:28:28.758Z,7.10
2018-04-28T03:31:00.106Z,7.20
2018-04-28T03:33:46.951Z,7.30
2018-04-28T03:36:24.205Z,7.30
2018-04-28T03:38:58.352Z,7.30
2018-04-28T03:41:25.821Z,7.40
2018-04-28T03:43:56.801Z,7.50
2018-04-28T03:46:25.946Z,7.70
2018-04-28T03:49:00.945Z,8.10
2018-04-28T03:51:29.165Z,7.80
2018-04-28T03:54:03.166Z,7.90
2018-04-28T03:56:56.178Z,7.90
2018-04-28T03:59:36.257Z,7.90
2018-04-28T04:02:15.658Z,7.90
2018-04-28T04:04:44.763Z,7.90
2018-04-28T04:07:29.802Z,7.90
2018-04-28T04:10:00.975Z,8.00
2018-04-28T04:18:56.178Z,7.80
2018-04-28T04:21:26.353Z,7.90
2018-04-28T04:24:01.477Z,7.80
2018-04-28T04:26:35.351Z,7.90
2018-04-28T04:29:18.515Z,7.90
2018-04-28T04:31:53.963Z,7.90
2018-04-28T04:37:37.617Z,7.90
2018-04-28T04:40:16.886Z,8.00
2018-04-28T04:42:56.338Z,7.90
2018-04-28T04:45:27.410Z,8.00
2018-04-28T04:48:19.397Z,8.00
2018-04-28T04:50:56.720Z,8.00
2018-04-28T04:53:29.961Z,8.10
2018-04-28T04:59:09.453Z,8.00
2018-04-28T05:01:38.553Z,7.90
2018-04-28T05:04:20.703Z,8.00
2018-04-28T05:07:06.003Z,8.10
2018-04-28T05:09:48.009Z,8.30
2018-04-28T05:12:27.275Z,8.20
2018-04-28T05:15:05.811Z,8.30
2018-04-28T05:17:50.093Z,8.50
2018-04-28T05:23:23.125Z,9.20
2018-04-28T05:29:09.821Z,9.80
2018-04-28T05:31:49.363Z,10.30
2018-04-28T05:34:28.857Z,10.80
2018-04-28T05:37:08.185Z,11.10
2018-04-28T05:42:38.322Z,11.70
2018-04-28T05:48:26.114Z,11.90
2018-04-28T05:51:03.256Z,12.10
2018-04-28T05:53:55.247Z,12.30
2018-04-28T05:59:29.921Z,12.50
2018-04-28T06:02:00.881Z,12.60
2018-04-28T06:07:47.669Z,12.80
2018-04-28T06:13:15.938Z,13.10
2018-04-28T06:16:07.099Z,13.20
2018-04-28T06:18:46.539Z,13.40
2018-04-28T06:21:14.058Z,13.60
2018-04-28T06:23:41.537Z,13.70
2018-04-28T06:26:09.808Z,13.90
2018-04-28T06:28:37.278Z,13.90
2018-04-28T06:31:04.746Z,14.20
2018-04-28T06:33:32.223Z,14.50
2018-04-28T06:36:00.755Z,14.70
2018-04-28T06:38:28.869Z,14.90
2018-04-28T06:40:56.335Z,14.90
2018-04-28T06:43:24.578Z,15.00
2018-04-28T06:45:52.038Z,15.00
2018-04-28T06:48:19.510Z,15.10
2018-04-28T06:50:47.022Z,15.20
2018-04-28T06:53:14.506Z,15.30
2018-04-28T06:55:42.001Z,15.40
2018-04-28T06:58:09.482Z,15.40
2018-04-28T07:00:37.709Z,15.60
2018-04-28T07:03:05.202Z,15.60
2018-04-28T07:05:33.620Z,15.70
2018-04-28T07:08:01.098Z,15.70
2018-04-28T07:10:28.579Z,15.90
2018-04-28T07:15:49.730Z,16.20
2018-04-28T07:18:17.204Z,16.20
2018-04-28T07:20:45.437Z,16.40
2018-04-28T07:23:12.915Z,16.40
2018-04-28T07:25:40.396Z,16.50
2018-04-28T07:28:08.649Z,16.60
2018-04-28T07:30:36.128Z,16.50
2018-04-28T07:33:05.094Z,16.70
2018-04-28T07:35:32.579Z,16.80
2018-04-28T07:38:00.834Z,17.00
2018-04-28T07:40:28.311Z,16.90
2018-04-28T07:42:56.552Z,16.90
2018-04-28T07:45:24.017Z,16.90
2018-04-28T07:47:51.502Z,16.80
2018-04-28T07:50:19.741Z,17.00
2018-04-28T07:52:47.205Z,17.00
2018-04-28T07:55:14.735Z,17.00
2018-04-28T07:57:42.161Z,17.10
2018-04-28T08:00:10.400Z,17.30
2018-04-28T08:02:37.882Z,17.20
2018-04-28T08:05:06.126Z,17.40
2018-04-28T08:07:33.610Z,17.40
2018-04-28T08:10:01.103Z,17.40
2018-04-28T08:12:28.573Z,17.70
2018-04-28T08:14:56.061Z,17.90
2018-04-28T08:17:23.529Z,18.20
2018-04-28T08:19:51.010Z,18.20
2018-04-28T08:22:18.482Z,18.20
2018-04-28T08:24:46.727Z,18.00
2018-04-28T08:27:14.222Z,18.00
2018-04-28T08:29:42.471Z,18.20
2018-04-28T08:32:09.973Z,18.10
2018-04-28T08:34:37.445Z,18.10
2018-04-28T08:37:04.940Z,18.20
2018-04-28T08:39:32.426Z,18.30
2018-04-28T08:42:00.659Z,18.60
2018-04-28T08:44:28.139Z,18.50
2018-04-28T08:46:55.601Z,18.70
2018-04-28T08:49:23.081Z,18.90
2018-04-28T08:51:51.341Z,19.10
2018-04-28T08:54:18.832Z,19.10
2018-04-28T08:56:54.873Z,19.30
2018-04-28T08:59:22.346Z,19.30
2018-04-28T09:01:49.837Z,19.30
2018-04-28T09:04:17.331Z,19.40
2018-04-28T09:06:45.599Z,19.70
2018-04-28T09:09:13.076Z,19.60
2018-04-28T09:11:40.558Z,19.70
2018-04-28T09:14:08.809Z,19.60
2018-04-28T09:16:36.290Z,19.60
2018-04-28T09:19:04.526Z,19.90
2018-04-28T09:21:32.008Z,19.90
2018-04-28T09:23:59.469Z,19.90
2018-04-28T09:26:26.955Z,19.90
2018-04-28T09:28:54.530Z,20.10
2018-04-28T09:31:22.010Z,20.20
2018-04-28T09:33:49.475Z,20.00
2018-04-28T09:36:16.955Z,20.10
2018-04-28T09:38:44.430Z,19.90
2018-04-28T09:41:11.934Z,20.00
2018-04-28T09:43:39.409Z,19.90
2018-04-28T09:46:06.881Z,20.10
2018-04-28T09:48:34.350Z,20.20
2018-04-28T09:51:01.840Z,20.30
2018-04-28T09:53:30.097Z,20.40
2018-04-28T09:55:57.634Z,20.40
2018-04-28T09:58:25.102Z,20.70
2018-04-28T10:00:52.591Z,20.70
2018-04-28T10:03:22.107Z,20.70
2018-04-28T10:05:49.697Z,20.90
2018-04-28T10:08:17.198Z,20.80
2018-04-28T10:10:44.681Z,20.70
2018-04-28T10:13:12.504Z,20.90
2018-04-28T10:15:40.015Z,20.80
2018-04-28T10:18:07.485Z,20.80
2018-04-28T10:20:35.044Z,21.00
2018-04-28T10:23:02.502Z,21.10
2018-04-28T10:25:29.989Z,20.60
2018-04-28T10:27:57.461Z,20.60
2018-04-28T10:30:24.941Z,20.60
2018-04-28T10:32:52.421Z,20.50
2018-04-28T10:35:20.646Z,20.50
2018-04-28T10:37:48.134Z,20.50
2018-04-28T10:40:15.597Z,20.20
2018-04-28T10:42:43.840Z,20.40
2018-04-28T10:45:11.309Z,20.40
2018-04-28T10:47:38.875Z,20.40
2018-04-28T10:50:07.033Z,20.00
2018-04-28T10:52:34.514Z,20.00
2018-04-28T10:55:01.990Z,20.00
2018-04-28T10:57:30.765Z,20.10
2018-04-28T10:59:58.229Z,20.10
2018-04-28T11:02:25.702Z,20.00
2018-04-28T11:04:54.501Z,20.20
2018-04-28T11:07:21.992Z,20.10
2018-04-28T11:09:49.460Z,20.10
2018-04-28T11:12:16.947Z,19.80
2018-04-28T11:14:44.896Z,20.00
2018-04-28T11:17:12.645Z,20.10
2018-04-28T11:19:40.112Z,19.90
2018-04-28T11:22:08.787Z,19.90
2018-04-28T11:24:36.265Z,20.00
2018-04-28T11:27:03.739Z,20.10
2018-04-28T11:29:31.234Z,19.90
2018-04-28T11:31:58.703Z,20.20
2018-04-28T11:34:26.257Z,20.50
2018-04-28T11:36:53.785Z,20.50
2018-04-28T11:39:21.280Z,20.50
2018-04-28T11:41:48.740Z,20.60
2018-04-28T11:44:16.220Z,20.50
2018-04-28T11:46:43.693Z,20.60
2018-04-28T11:49:11.173Z,20.50
2018-04-28T11:51:38.635Z,20.70
2018-04-28T11:54:06.113Z,20.70
2018-04-28T11:56:34.345Z,20.60
2018-04-28T11:59:01.878Z,20.60
2018-04-28T12:01:29.322Z,20.40
2018-04-28T12:03:56.798Z,20.40
2018-04-28T12:06:24.262Z,20.40
2018-04-28T12:08:51.751Z,20.50
2018-04-28T12:11:19.224Z,20.70
2018-04-28T12:13:46.711Z,20.80
2018-04-28T12:16:14.940Z,20.80
2018-04-28T12:18:42.421Z,20.80
2018-04-28T12:21:09.968Z,20.90
2018-04-28T12:23:37.420Z,20.90
2018-04-28T12:26:04.853Z,20.90
2018-04-28T12:28:32.334Z,21.00
2018-04-28T12:30:59.793Z,21.20
2018-04-28T12:33:27.365Z,21.00
2018-04-28T12:35:54.848Z,20.90
2018-04-28T12:38:23.090Z,20.70
2018-04-28T12:40:50.555Z,20.70
2018-04-28T12:43:18.034Z,20.50
2018-04-28T12:45:46.266Z,20.50
2018-04-28T12:48:13.737Z,20.40
2018-04-28T12:50:41.212Z,20.30
2018-04-28T12:53:08.694Z,20.10
2018-04-28T12:55:36.924Z,20.30
2018-04-28T12:58:04.405Z,20.20
2018-04-28T13:00:31.869Z,20.30
2018-04-28T13:02:59.346Z,20.20
2018-04-28T13:05:27.597Z,20.30
2018-04-28T13:07:55.430Z,20.30
2018-04-28T13:10:22.890Z,20.30
2018-04-28T13:12:50.397Z,20.60
2018-04-28T13:15:17.895Z,20.80
2018-04-28T13:17:45.367Z,21.00
2018-04-28T13:20:12.914Z,20.90
2018-04-28T13:22:40.376Z,21.10
2018-04-28T13:25:07.842Z,21.20
2018-04-28T13:27:35.312Z,21.20
2018-04-28T13:30:02.791Z,21.00
2018-04-28T13:32:30.250Z,21.20
2018-04-28T13:34:57.723Z,21.40
2018-04-28T13:37:25.196Z,21.50
2018-04-28T13:39:53.433Z,21.80
2018-04-28T13:42:20.904Z,21.80
2018-04-28T13:44:48.801Z,21.90
2018-04-28T13:47:17.043Z,21.50
2018-04-28T13:49:45.141Z,21.50
2018-04-28T13:52:13.385Z,20.80
2018-04-28T13:54:40.869Z,20.80
2018-04-28T13:57:08.334Z,20.90
2018-04-28T13:59:35.815Z,20.90
2018-04-28T14:02:03.284Z,20.90
2018-04-28T14:04:30.851Z,20.70
2018-04-28T14:06:58.317Z,20.60
2018-04-28T14:09:25.802Z,20.80
2018-04-28T14:11:53.279Z,21.10
2018-04-28T14:14:20.746Z,21.20
2018-04-28T14:16:48.211Z,21.40
2018-04-28T14:19:16.455Z,21.30
2018-04-28T14:21:43.921Z,21.30
2018-04-28T14:24:11.393Z,21.30
2018-04-28T14:26:38.854Z,21.30
2018-04-28T14:29:06.330Z,21.30
2018-04-28T14:31:34.617Z,21.70
2018-04-28T14:34:02.853Z,21.50
2018-04-28T14:36:30.369Z,21.60
2018-04-28T14:38:57.837Z,21.60
2018-04-28T14:41:25.310Z,21.40
2018-04-28T14:43:52.779Z,21.60
2018-04-28T14:46:20.241Z,21.60
2018-04-28T14:48:47.718Z,21.70
2018-04-28T14:51:15.183Z,21.60
2018-04-28T14:53:43.426Z,21.50
2018-04-28T14:56:10.896Z,21.50
2018-04-28T14:58:38.383Z,21.70
2018-04-28T15:01:06.620Z,21.60
2018-04-28T15:03:34.106Z,21.60
2018-04-28T15:06:01.582Z,21.70
2018-04-28T15:08:29.817Z,21.50
2018-04-28T15:10:57.318Z,21.40
2018-04-28T15:13:25.584Z,21.20
2018-04-28T15:15:53.046Z,21.20
2018-04-28T15:18:21.289Z,21.20
2018-04-28T15:20:48.767Z,21.20
2018-04-28T15:23:16.233Z,21.40
2018-04-28T15:25:43.722Z,21.30
2018-04-28T15:28:11.189Z,21.20
2018-04-28T15:30:38.677Z,21.20
2018-04-28T15:33:06.143Z,21.00
2018-04-28T15:35:33.613Z,21.00
2018-04-28T15:38:01.074Z,21.00
2018-04-28T15:40:28.550Z,20.90
2018-04-28T15:42:56.785Z,20.50
2018-04-28T15:45:24.266Z,20.50
2018-04-28T15:47:51.743Z,20.50
2018-04-28T15:50:19.214Z,20.70
2018-04-28T15:52:47.457Z,20.90
2018-04-28T15:55:15.396Z,20.90
2018-04-28T15:57:42.839Z,21.10
2018-04-28T16:00:10.312Z,21.10
2018-04-28T16:02:37.779Z,21.00
2018-04-28T16:05:05.260Z,20.90
2018-04-28T16:07:32.779Z,20.80
2018-04-28T16:10:00.248Z,20.70
2018-04-28T16:12:27.714Z,20.60
2018-04-28T16:14:55.280Z,20.40
2018-04-28T16:17:22.673Z,20.40
2018-04-28T16:19:50.151Z,20.50
2018-04-28T16:22:18.377Z,20.30
2018-04-28T16:24:45.858Z,20.30
2018-04-28T16:27:13.398Z,20.30
2018-04-28T16:29:41.975Z,20.30
2018-04-28T16:32:09.429Z,20.30
2018-04-28T16:34:36.931Z,20.30
2018-04-28T16:37:05.178Z,20.30
2018-04-28T16:39:32.919Z,20.30
2018-04-28T16:42:00.382Z,20.20
2018-04-28T16:44:27.849Z,20.30
2018-04-28T16:46:55.317Z,20.30
2018-04-28T16:49:22.794Z,20.30
2018-04-28T16:51:50.257Z,20.40
2018-04-28T16:54:17.736Z,20.30
2018-04-28T16:56:45.969Z,20.30
2018-04-28T16:59:13.441Z,20.30
2018-04-28T17:01:40.911Z,20.20
2018-04-28T17:04:08.737Z,20.20
2018-04-28T17:06:36.247Z,20.30
2018-04-28T17:09:03.686Z,20.30
2018-04-28T17:11:31.161Z,20.20
2018-04-28T17:13:58.630Z,20.20
2018-04-28T17:16:26.870Z,20.00
2018-04-28T17:18:54.345Z,20.00
2018-04-28T17:21:21.828Z,20.00
2018-04-28T17:23:51.571Z,19.90
2018-04-28T17:26:19.043Z,19.90
2018-04-28T17:28:47.658Z,19.90
2018-04-28T17:31:15.133Z,19.90
2018-04-28T17:33:43.379Z,19.70
2018-04-28T17:36:10.861Z,19.70
2018-04-28T17:38:38.326Z,19.60
2018-04-28T17:41:06.578Z,19.40
2018-04-28T17:43:34.046Z,19.40
2018-04-28T17:46:01.526Z,19.30
2018-04-28T17:48:29.758Z,19.10
2018-04-28T17:50:57.234Z,19.10
2018-04-28T17:53:24.701Z,19.00
2018-04-28T17:55:52.175Z,18.90
2018-04-28T17:58:20.412Z,18.80
2018-04-28T18:00:47.882Z,18.80
2018-04-28T18:03:15.342Z,18.70
2018-04-28T18:05:42.810Z,18.70
2018-04-28T18:08:10.278Z,18.90
2018-04-28T18:10:37.754Z,18.80
2018-04-28T18:13:06.058Z,18.50
2018-04-28T18:15:33.521Z,18.50
2018-04-28T18:18:00.994Z,18.50
2018-04-28T18:20:28.533Z,18.40
2018-04-28T18:22:56.000Z,18.30
2018-04-28T18:25:23.485Z,18.30
2018-04-28T18:27:50.945Z,18.40
2018-04-28T18:30:18.413Z,18.50
2018-04-28T18:32:45.877Z,18.50
2018-04-28T18:35:13.349Z,18.30
2018-04-28T18:37:41.569Z,18.40
2018-04-28T18:40:09.072Z,18.30
2018-04-28T18:42:36.536Z,18.30
2018-04-28T18:45:04.009Z,18.30
2018-04-28T18:47:32.654Z,18.10
2018-04-28T18:50:00.130Z,18.10
2018-04-28T18:55:20.498Z,18.10
2018-04-28T18:57:47.953Z,18.10
2018-04-28T19:00:15.425Z,18.00
2018-04-28T19:02:42.885Z,18.00
2018-04-28T19:05:10.429Z,18.00
2018-04-28T19:07:37.887Z,18.10
2018-04-28T19:10:05.362Z,18.00
2018-04-28T19:12:33.144Z,18.00
2018-04-28T19:15:00.609Z,18.00
2018-04-28T19:17:28.077Z,17.90
2018-04-28T19:19:55.557Z,17.90
2018-04-28T19:22:23.840Z,17.80
2018-04-28T19:24:52.085Z,17.50
2018-04-28T19:27:19.550Z,17.40
2018-04-28T19:29:47.058Z,17.20
2018-04-28T19:32:14.522Z,17.20
2018-04-28T19:34:42.001Z,17.20
2018-04-28T19:37:09.526Z,17.30
2018-04-28T19:39:36.954Z,17.20
2018-04-28T19:42:04.427Z,17.20
2018-04-28T19:44:32.653Z,16.80
2018-04-28T19:47:00.126Z,16.80
2018-04-28T19:49:27.599Z,16.70
2018-04-28T19:51:55.074Z,16.30
2018-04-28T19:54:23.345Z,15.90
2018-04-28T19:56:52.073Z,15.80
2018-04-28T19:59:19.585Z,15.80
2018-04-28T20:01:47.053Z,15.80
2018-04-28T20:04:15.286Z,15.90
2018-04-28T20:06:42.765Z,15.80
2018-04-28T20:09:10.993Z,16.20
2018-04-28T20:11:38.473Z,16.10
2018-04-28T20:14:05.925Z,16.20
2018-04-28T20:16:33.426Z,16.40
2018-04-28T20:19:00.873Z,16.40
2018-04-28T20:21:28.356Z,16.50
2018-04-28T20:24:07.743Z,16.60
2018-04-28T20:26:35.221Z,16.70
2018-04-28T20:29:02.688Z,16.70
2018-04-28T20:31:30.925Z,16.70
2018-04-28T20:33:58.389Z,16.70
2018-04-28T20:36:25.871Z,16.70
2018-04-28T20:38:53.348Z,16.70
2018-04-28T20:41:20.825Z,16.60
2018-04-28T20:43:49.450Z,16.50
2018-04-28T20:46:16.928Z,16.50
2018-04-28T20:48:44.426Z,16.40
2018-04-28T20:51:12.666Z,16.10
2018-04-28T20:53:40.133Z,16.10
2018-04-28T20:56:07.615Z,16.10
2018-04-28T20:58:35.078Z,16.00
2018-04-28T21:01:02.545Z,16.10
2018-04-28T21:03:30.774Z,16.10
2018-04-28T21:05:58.249Z,16.10
2018-04-28T21:08:25.712Z,15.90
2018-04-28T21:10:53.188Z,15.70
2018-04-28T21:13:21.422Z,15.70
2018-04-28T21:15:48.897Z,15.70
2018-04-28T21:18:16.367Z,15.70
2018-04-28T21:20:43.858Z,15.80
2018-04-28T21:23:12.094Z,15.90
2018-04-28T21:25:39.568Z,15.90
2018-04-28T21:28:07.033Z,15.90
2018-04-28T21:30:34.514Z,15.90
2018-04-28T21:33:01.986Z,15.90
2018-04-28T21:35:29.465Z,15.90
2018-04-28T21:37:57.414Z,15.80
2018-04-28T21:40:24.881Z,15.80
2018-04-28T21:42:52.371Z,15.80
2018-04-28T21:45:19.846Z,15.70
2018-04-28T21:47:47.315Z,15.60
2018-04-28T21:50:15.557Z,15.50
2018-04-28T21:52:43.030Z,15.50
2018-04-28T21:55:10.497Z,15.50
2018-04-28T21:57:37.979Z,15.50
2018-04-28T22:00:06.205Z,15.10
2018-04-28T22:02:33.683Z,15.10
2018-04-28T22:05:01.139Z,15.10
2018-04-28T22:07:28.615Z,14.90
2018-04-28T22:09:56.854Z,14.40
2018-04-28T22:12:24.339Z,14.50
2018-04-28T22:14:51.813Z,14.30
2018-04-28T22:17:20.050Z,14.10
2018-04-28T22:19:47.518Z,14.10
2018-04-28T22:22:15.015Z,14.10
2018-04-28T22:24:43.242Z,14.10
2018-04-28T22:27:10.720Z,14.10
2018-04-28T22:29:38.190Z,14.30
2018-04-28T22:32:05.666Z,14.40
2018-04-28T22:34:33.893Z,14.60
2018-04-28T22:37:01.370Z,14.50
2018-04-28T22:39:28.845Z,14.60
2018-04-28T22:41:56.947Z,14.60
2018-04-28T22:44:25.161Z,14.80
2018-04-28T22:46:52.637Z,14.70
2018-04-28T22:49:20.102Z,14.80
2018-04-28T22:51:47.581Z,14.80
2018-04-28T22:54:15.882Z,14.90
2018-04-28T22:56:43.368Z,14.80
2018-04-28T22:59:10.861Z,14.80
2018-04-28T23:01:38.334Z,14.60
2018-04-28T23:04:06.570Z,14.30
2018-04-28T23:06:34.042Z,14.30
2018-04-28T23:09:01.505Z,14.30
2018-04-28T23:11:29.230Z,14.10
2018-04-28T23:13:56.729Z,14.20
2018-04-28T23:16:24.193Z,14.30
2018-04-28T23:18:51.665Z,14.40
2018-04-28T23:21:19.167Z,14.50
2018-04-28T23:23:46.638Z,14.60
2018-04-28T23:26:14.123Z,14.60
2018-04-28T23:28:41.589Z,14.60
2018-04-28T23:31:09.066Z,14.70
2018-04-28T23:33:37.298Z,14.80
2018-04-28T23:36:04.786Z,14.80
2018-04-28T23:38:32.265Z,14.80
2018-04-28T23:41:00.777Z,14.90
2018-04-28T23:43:29.306Z,14.90
2018-04-28T23:45:56.770Z,14.80
2018-04-28T23:48:24.238Z,14.90
2018-04-28T23:50:52.469Z,15.00
2018-04-28T23:53:19.945Z,15.00
2018-04-28T23:55:47.409Z,15.00
2018-04-28T23:58:14.894Z,15.00
